createdAt,value
2022-10-13T00:00:03.128Z,10.05
2022-10-13T00:02:29.539Z,7.75
2022-10-13T00:04:55.886Z,9.05
2022-10-13T00:07:22.207Z,12.93
2022-10-13T00:09:48.576Z,9.15
2022-10-13T00:12:15.008Z,10.73
2022-10-13T00:14:41.405Z,6.93
2022-10-13T00:17:07.810Z,11.48
2022-10-13T00:19:34.154Z,13.48
2022-10-13T00:22:01.227Z,15.75
2022-10-13T00:24:27.707Z,13.82
2022-10-13T00:26:54.157Z,18.08
2022-10-13T00:29:21.860Z,10.48
2022-10-13T00:31:48.225Z,15.25
2022-10-13T00:34:14.597Z,12.18
2022-10-13T00:36:40.947Z,11.82
2022-10-13T00:39:07.700Z,14.82
2022-10-13T00:41:34.031Z,13.32
2022-10-13T00:44:01.680Z,13.52
2022-10-13T00:46:29.401Z,11.95
2022-10-13T00:48:56.812Z,14.07
2022-10-13T00:51:25.837Z,12.55
2022-10-13T00:53:52.823Z,17.33
2022-10-13T00:56:19.765Z,11.95
2022-10-13T00:58:47.392Z,15.95
2022-10-13T01:01:14.183Z,11.70
2022-10-13T01:03:40.897Z,14.85
2022-10-13T01:06:08.018Z,9.00
2022-10-13T01:08:34.392Z,11.40
2022-10-13T01:11:19.649Z,13.20
2022-10-13T01:13:45.970Z,9.88
2022-10-13T01:16:24.406Z,9.38
2022-10-13T01:19:18.574Z,13.25
2022-10-13T01:22:03.777Z,10.68
2022-10-13T01:24:45.412Z,15.05
2022-10-13T01:27:30.637Z,10.75
2022-10-13T01:30:07.028Z,12.60
2022-10-13T01:32:33.454Z,15.85
2022-10-13T01:35:07.164Z,15.00
2022-10-13T01:37:51.635Z,15.75
2022-10-13T01:40:28.908Z,6.47
2022-10-13T01:42:58.509Z,14.98
2022-10-13T01:45:29.334Z,8.43
2022-10-13T01:47:55.987Z,11.10
2022-10-13T01:50:23.192Z,18.50
2022-10-13T01:52:50.298Z,15.57
2022-10-13T01:55:16.644Z,14.60
2022-10-13T01:57:44.977Z,15.45
2022-10-13T02:00:13.114Z,26.35
2022-10-13T02:02:39.427Z,15.05
2022-10-13T02:05:09.001Z,17.67
2022-10-13T02:07:42.869Z,12.38
2022-10-13T02:10:31.104Z,19.38
2022-10-13T02:13:03.568Z,10.80
2022-10-13T02:15:32.850Z,12.35
2022-10-13T02:18:00.809Z,13.27
2022-10-13T02:20:27.156Z,15.45
2022-10-13T02:22:56.005Z,11.32
2022-10-13T02:25:22.494Z,19.65
2022-10-13T02:27:49.602Z,27.20
2022-10-13T02:30:24.172Z,9.18
2022-10-13T02:32:50.669Z,22.70
2022-10-13T02:35:17.042Z,16.27
2022-10-13T02:37:43.436Z,10.23
2022-10-13T02:40:10.093Z,14.35
2022-10-13T02:42:36.461Z,21.88
2022-10-13T02:45:03.012Z,17.48
2022-10-13T02:47:29.449Z,15.95
2022-10-13T02:49:55.850Z,15.48
2022-10-13T02:52:22.410Z,23.48
2022-10-13T02:54:48.979Z,29.08
2022-10-13T02:57:15.433Z,18.50
2022-10-13T02:59:44.896Z,26.73
2022-10-13T03:02:11.220Z,20.08
2022-10-13T03:04:37.546Z,16.90
2022-10-13T03:07:04.287Z,22.17
2022-10-13T03:09:30.798Z,10.93
2022-10-13T03:11:57.581Z,17.90
2022-10-13T03:14:24.113Z,13.75
2022-10-13T03:16:50.437Z,14.63
2022-10-13T03:19:16.768Z,20.10
2022-10-13T03:21:43.142Z,12.00
2022-10-13T03:24:09.478Z,16.95
2022-10-13T03:26:35.926Z,15.18
2022-10-13T03:29:02.559Z,20.15
2022-10-13T03:31:29.110Z,13.18
2022-10-13T03:33:55.455Z,13.52
2022-10-13T03:36:21.878Z,15.65
2022-10-13T03:38:48.304Z,20.52
2022-10-13T03:41:17.558Z,10.32
2022-10-13T03:43:44.541Z,22.13
2022-10-13T03:46:12.489Z,13.60
2022-10-13T03:48:38.863Z,18.33
2022-10-13T03:51:06.306Z,17.55
2022-10-13T03:53:32.927Z,18.27
2022-10-13T03:55:59.277Z,19.42
2022-10-13T03:58:29.101Z,12.98
2022-10-13T04:00:55.919Z,14.82
2022-10-13T04:03:22.314Z,15.38
2022-10-13T04:05:48.856Z,17.15
2022-10-13T04:08:15.340Z,16.95
2022-10-13T04:10:41.733Z,16.75
2022-10-13T04:13:08.307Z,23.77
2022-10-13T04:15:41.069Z,17.10
2022-10-13T04:18:08.037Z,15.40
2022-10-13T04:20:38.660Z,13.23
2022-10-13T04:23:05.069Z,23.70
2022-10-13T04:25:31.528Z,13.27
2022-10-13T04:27:57.883Z,25.88
2022-10-13T04:30:24.222Z,12.98
2022-10-13T04:32:50.552Z,17.25
2022-10-13T04:35:16.978Z,15.65
2022-10-13T04:37:45.242Z,19.15
2022-10-13T04:40:11.838Z,14.32
2022-10-13T04:42:38.165Z,13.20
2022-10-13T04:45:05.050Z,15.07
2022-10-13T04:47:36.154Z,17.35
2022-10-13T04:50:03.749Z,16.02
2022-10-13T04:52:30.072Z,19.95
2022-10-13T04:54:56.398Z,10.40
2022-10-13T04:57:22.780Z,19.85
2022-10-13T04:59:49.096Z,14.18
2022-10-13T05:02:15.442Z,15.43
2022-10-13T05:04:41.826Z,13.60
2022-10-13T05:07:23.542Z,18.80
2022-10-13T05:09:51.103Z,13.05
2022-10-13T05:12:17.726Z,14.50
2022-10-13T05:14:44.292Z,19.05
2022-10-13T05:17:10.712Z,19.02
2022-10-13T05:19:37.040Z,16.40
2022-10-13T05:22:03.521Z,14.20
2022-10-13T05:24:39.148Z,13.13
2022-10-13T05:27:07.039Z,17.88
2022-10-13T05:29:33.574Z,18.23
2022-10-13T05:31:59.926Z,16.73
2022-10-13T05:34:29.198Z,17.20
2022-10-13T05:36:55.741Z,14.65
2022-10-13T05:39:22.522Z,20.30
2022-10-13T05:41:49.018Z,17.30
2022-10-13T05:44:17.406Z,16.17
2022-10-13T05:46:44.401Z,14.40
2022-10-13T05:49:11.122Z,15.18
2022-10-13T05:51:42.840Z,15.30
2022-10-13T05:54:12.944Z,14.82
2022-10-13T05:56:41.097Z,19.33
2022-10-13T05:59:08.492Z,19.10
2022-10-13T06:01:39.187Z,13.27
2022-10-13T06:04:08.159Z,17.90
2022-10-13T06:06:34.829Z,17.73
2022-10-13T06:09:01.424Z,17.63
2022-10-13T06:11:27.875Z,15.75
2022-10-13T06:13:54.237Z,14.48
2022-10-13T06:16:20.616Z,14.60
2022-10-13T06:18:46.982Z,14.48
2022-10-13T06:21:13.659Z,18.13
2022-10-13T06:23:40.050Z,16.08
2022-10-13T06:26:07.186Z,10.77
2022-10-13T06:28:33.568Z,21.45
2022-10-13T06:30:59.918Z,13.95
2022-10-13T06:33:26.337Z,14.65
2022-10-13T06:35:52.737Z,19.02
2022-10-13T06:38:19.724Z,20.60
2022-10-13T06:40:46.104Z,16.13
2022-10-13T06:43:12.456Z,14.18
2022-10-13T06:45:38.860Z,21.50
2022-10-13T06:48:05.242Z,13.75
2022-10-13T06:50:32.370Z,10.88
2022-10-13T06:52:58.730Z,16.40
2022-10-13T06:55:25.079Z,12.85
2022-10-13T06:57:51.464Z,14.40
2022-10-13T07:00:18.009Z,8.43
2022-10-13T07:02:44.363Z,14.15
2022-10-13T07:05:10.707Z,14.23
2022-10-13T07:07:37.051Z,15.32
2022-10-13T07:10:03.605Z,15.50
2022-10-13T07:12:29.933Z,11.00
2022-10-13T07:14:56.329Z,20.75
2022-10-13T07:17:23.031Z,15.43
2022-10-13T07:19:49.798Z,10.70
2022-10-13T07:22:16.306Z,16.60
2022-10-13T07:24:45.665Z,10.27
2022-10-13T07:27:12.202Z,15.30
2022-10-13T07:29:38.585Z,11.90
2022-10-13T07:32:05.242Z,12.75
2022-10-13T07:34:31.669Z,12.25
2022-10-13T07:36:58.017Z,11.23
2022-10-13T07:39:24.395Z,9.73
2022-10-13T07:41:51.414Z,13.18
2022-10-13T07:44:19.887Z,9.93
2022-10-13T07:46:46.343Z,11.50
2022-10-13T07:49:16.300Z,13.00
2022-10-13T07:51:44.420Z,11.02
2022-10-13T07:54:11.047Z,12.90
2022-10-13T07:56:37.542Z,14.77
2022-10-13T07:59:06.392Z,14.30
2022-10-13T08:01:32.825Z,9.73
2022-10-13T08:03:59.444Z,10.40
2022-10-13T08:06:25.842Z,13.18
2022-10-13T08:08:52.714Z,15.35
2022-10-13T08:11:19.222Z,16.60
2022-10-13T08:13:49.408Z,10.50
2022-10-13T08:16:18.180Z,12.27
2022-10-13T08:18:45.124Z,7.90
2022-10-13T08:24:03.030Z,9.07
2022-10-13T08:26:29.436Z,14.00
2022-10-13T08:29:20.325Z,13.40
2022-10-13T08:31:42.949Z,11.35
2022-10-13T08:34:10.322Z,11.20
2022-10-13T08:36:36.960Z,9.65
2022-10-13T08:39:03.580Z,12.77
2022-10-13T08:41:31.450Z,8.88
2022-10-13T08:44:49.558Z,9.77
2022-10-13T08:46:54.080Z,14.13
2022-10-13T08:49:20.444Z,16.80
2022-10-13T08:51:46.857Z,13.77
2022-10-13T08:54:15.491Z,6.88
2022-10-13T08:56:43.326Z,11.68
2022-10-13T08:59:13.214Z,11.70
2022-10-13T09:01:41.959Z,18.20
2022-10-13T09:04:23.935Z,9.30
2022-10-13T09:06:55.481Z,24.67
2022-10-13T09:09:22.113Z,9.75
2022-10-13T09:11:50.363Z,8.85
2022-10-13T09:14:19.968Z,14.63
2022-10-13T09:16:46.414Z,9.57
2022-10-13T09:19:14.325Z,14.98
2022-10-13T09:21:40.994Z,10.82
2022-10-13T09:24:08.480Z,9.02
2022-10-13T09:26:38.931Z,10.00
2022-10-13T09:29:09.848Z,7.57
2022-10-13T09:34:24.106Z,15.88
2022-10-13T09:37:01.244Z,10.82
2022-10-13T09:39:27.999Z,8.05
2022-10-13T09:42:09.230Z,13.82
2022-10-13T09:44:35.748Z,8.15
2022-10-13T09:47:03.757Z,11.07
2022-10-13T09:49:38.187Z,10.38
2022-10-13T09:52:06.664Z,9.85
2022-10-13T09:54:51.173Z,9.93
2022-10-13T09:57:39.943Z,24.42
2022-10-13T10:00:23.102Z,7.68
2022-10-13T10:02:58.471Z,9.02
2022-10-13T10:05:26.559Z,8.80
2022-10-13T10:07:53.139Z,17.92
2022-10-13T10:10:29.419Z,9.13
2022-10-13T10:12:55.797Z,6.32
2022-10-13T10:15:25.607Z,11.15
2022-10-13T10:17:54.587Z,11.55
2022-10-13T10:20:24.307Z,8.52
2022-10-13T10:23:04.926Z,9.38
2022-10-13T10:25:39.861Z,5.78
2022-10-13T10:28:41.707Z,11.35
2022-10-13T10:31:19.313Z,6.82
2022-10-13T10:33:45.693Z,7.55
2022-10-13T10:36:17.014Z,17.63
2022-10-13T10:38:43.385Z,11.60
2022-10-13T10:41:28.181Z,11.32
2022-10-13T10:44:02.702Z,9.63
2022-10-13T10:46:31.001Z,12.85
2022-10-13T10:48:59.592Z,12.32
2022-10-13T10:51:31.086Z,6.57
2022-10-13T10:54:06.277Z,9.85
2022-10-13T10:56:40.611Z,7.63
2022-10-13T10:59:26.386Z,10.75
2022-10-13T11:02:04.554Z,10.13
2022-10-13T11:04:30.898Z,9.43
2022-10-13T11:06:57.296Z,9.57
2022-10-13T11:09:42.344Z,9.73
2022-10-13T11:12:21.506Z,10.30
2022-10-13T11:15:02.155Z,6.28
2022-10-13T11:17:32.456Z,13.00
2022-10-13T11:19:59.156Z,8.45
2022-10-13T11:22:28.831Z,9.15
2022-10-13T11:24:55.244Z,7.43
2022-10-13T11:27:38.368Z,9.93
2022-10-13T11:30:05.284Z,7.95
2022-10-13T11:32:41.592Z,8.77
2022-10-13T11:35:08.201Z,7.88
2022-10-13T11:38:05.970Z,9.35
2022-10-13T11:40:36.245Z,16.05
2022-10-13T11:43:17.965Z,9.13
2022-10-13T11:45:53.331Z,9.88
2022-10-13T11:48:38.603Z,11.88
2022-10-13T11:51:16.379Z,11.60
2022-10-13T11:54:01.904Z,9.45
2022-10-13T11:56:39.584Z,10.60
2022-10-13T11:59:18.510Z,10.27
2022-10-13T12:01:45.190Z,9.35
2022-10-13T12:04:14.951Z,12.57
2022-10-13T12:06:42.184Z,7.57
2022-10-13T12:09:19.298Z,7.55
2022-10-13T12:11:45.917Z,7.95
2022-10-13T12:14:22.421Z,9.90
2022-10-13T12:19:27.898Z,12.77
2022-10-13T12:21:55.967Z,8.77
2022-10-13T12:24:23.777Z,13.85
2022-10-13T12:26:50.913Z,16.65
2022-10-13T12:29:17.842Z,12.30
2022-10-13T12:31:48.428Z,7.75
2022-10-13T12:34:19.788Z,10.10
2022-10-13T12:36:50.810Z,10.05
2022-10-13T12:39:18.073Z,10.80
2022-10-13T12:41:45.824Z,9.27
2022-10-13T12:44:17.919Z,7.28
2022-10-13T12:46:45.701Z,7.40
2022-10-13T12:49:35.527Z,9.35
2022-10-13T12:52:31.278Z,7.88
2022-10-13T12:54:59.399Z,6.38
2022-10-13T12:57:35.092Z,8.82
2022-10-13T13:00:05.656Z,13.52
2022-10-13T13:02:32.989Z,11.63
2022-10-13T13:04:59.580Z,12.95
2022-10-13T13:07:33.353Z,15.90
2022-10-13T13:10:21.167Z,14.65
2022-10-13T13:12:48.861Z,11.00
2022-10-13T13:15:18.351Z,11.82
2022-10-13T13:17:57.842Z,15.35
2022-10-13T13:20:32.858Z,12.88
2022-10-13T13:23:02.020Z,11.52
2022-10-13T13:25:28.523Z,12.77
2022-10-13T13:27:55.109Z,15.27
2022-10-13T13:30:22.267Z,10.38
2022-10-13T13:32:48.827Z,10.70
2022-10-13T13:35:15.439Z,15.18
2022-10-13T13:37:44.469Z,10.82
2022-10-13T13:40:15.032Z,13.75
2022-10-13T13:42:41.440Z,11.07
2022-10-13T13:45:08.237Z,12.93
2022-10-13T13:47:34.707Z,8.88
2022-10-13T13:50:01.257Z,12.88
2022-10-13T13:52:27.644Z,14.05
2022-10-13T13:54:56.125Z,11.05
2022-10-13T13:57:22.774Z,12.25
2022-10-13T13:59:49.318Z,14.50
2022-10-13T14:02:17.279Z,16.92
2022-10-13T14:04:44.092Z,11.10
2022-10-13T14:07:10.740Z,7.55
2022-10-13T14:09:37.198Z,9.88
2022-10-13T14:12:03.685Z,8.77
2022-10-13T14:14:33.434Z,11.38
2022-10-13T14:17:00.498Z,10.63
2022-10-13T14:19:26.954Z,11.75
2022-10-13T14:21:53.510Z,11.98
2022-10-13T14:24:19.952Z,16.63
2022-10-13T14:26:46.406Z,15.38
2022-10-13T14:29:13.690Z,12.82
2022-10-13T14:31:43.285Z,12.85
2022-10-13T14:34:09.800Z,15.13
2022-10-13T14:36:36.313Z,9.05
2022-10-13T14:39:03.069Z,13.30
2022-10-13T14:41:29.496Z,12.50
2022-10-13T14:43:56.582Z,9.20
2022-10-13T14:46:23.322Z,13.55
2022-10-13T14:48:49.796Z,9.50
2022-10-13T14:51:16.623Z,12.35
2022-10-13T14:53:44.623Z,20.70
2022-10-13T14:56:24.275Z,15.20
2022-10-13T14:58:54.980Z,16.42
2022-10-13T15:01:21.881Z,8.30
2022-10-13T15:03:48.636Z,11.77
2022-10-13T15:06:16.327Z,10.00
2022-10-13T15:08:42.896Z,10.55
2022-10-13T15:11:09.840Z,15.20
2022-10-13T15:13:36.752Z,9.15
2022-10-13T15:16:06.471Z,14.27
2022-10-13T15:18:33.622Z,12.88
2022-10-13T15:21:00.048Z,10.32
2022-10-13T15:23:27.059Z,12.38
2022-10-13T15:25:57.998Z,12.18
2022-10-13T15:30:51.040Z,13.88
2022-10-13T15:33:20.693Z,13.85
2022-10-13T15:35:50.974Z,7.10
2022-10-13T15:38:18.273Z,12.63
2022-10-13T15:40:44.779Z,6.82
2022-10-13T15:43:11.818Z,16.35
2022-10-13T15:45:38.612Z,10.77
2022-10-13T15:48:05.672Z,14.48
2022-10-13T15:50:32.117Z,17.60
2022-10-13T15:52:59.141Z,13.13
2022-10-13T15:55:25.772Z,10.38
2022-10-13T15:57:52.264Z,17.10
2022-10-13T16:00:18.780Z,13.70
2022-10-13T16:02:45.564Z,11.23
2022-10-13T16:05:12.825Z,9.05
2022-10-13T16:07:41.982Z,10.30
2022-10-13T16:10:09.179Z,14.40
2022-10-13T16:12:35.735Z,13.50
2022-10-13T16:15:03.510Z,11.77
2022-10-13T16:17:29.887Z,9.75
2022-10-13T16:19:56.486Z,11.40
2022-10-13T16:22:23.182Z,13.13
2022-10-13T16:24:51.946Z,13.18
2022-10-13T16:27:18.710Z,13.65
2022-10-13T16:29:45.075Z,8.40
2022-10-13T16:32:11.505Z,12.43
2022-10-13T16:34:38.063Z,14.38
2022-10-13T16:37:04.516Z,22.75
2022-10-13T16:39:30.952Z,8.95
2022-10-13T16:41:57.383Z,12.00
2022-10-13T16:44:23.825Z,13.07
2022-10-13T16:46:52.384Z,7.63
2022-10-13T16:49:18.768Z,10.00
2022-10-13T16:51:45.348Z,9.50
2022-10-13T16:54:11.826Z,10.20
2022-10-13T16:56:38.261Z,8.63
2022-10-13T16:59:06.061Z,16.23
2022-10-13T17:01:33.304Z,13.18
2022-10-13T17:04:00.079Z,12.52
2022-10-13T17:06:27.521Z,13.20
2022-10-13T17:08:54.005Z,13.60
2022-10-13T17:11:22.427Z,12.45
2022-10-13T17:13:49.402Z,13.88
2022-10-13T17:16:16.135Z,16.90
2022-10-13T17:18:42.718Z,16.25
2022-10-13T17:21:10.566Z,16.90
2022-10-13T17:23:37.612Z,13.73
2022-10-13T17:26:05.498Z,13.13
2022-10-13T17:28:32.471Z,16.77
2022-10-13T17:31:12.019Z,14.02
2022-10-13T17:33:39.070Z,10.73
2022-10-13T17:36:07.306Z,13.35
2022-10-13T17:38:33.751Z,16.83
2022-10-13T17:41:02.618Z,14.57
2022-10-13T17:43:29.661Z,10.02
2022-10-13T17:46:07.473Z,12.25
2022-10-13T17:48:43.171Z,15.55
2022-10-13T17:51:10.906Z,17.75
2022-10-13T17:53:38.074Z,13.00
2022-10-13T17:56:05.924Z,18.00
2022-10-13T17:58:35.012Z,10.50
2022-10-13T18:01:13.245Z,11.88
2022-10-13T18:03:44.199Z,12.27
2022-10-13T18:06:10.827Z,15.45
2022-10-13T18:08:37.237Z,17.75
2022-10-13T18:11:08.687Z,13.70
2022-10-13T18:13:35.508Z,15.65
2022-10-13T18:16:03.451Z,12.05
2022-10-13T18:18:29.981Z,14.48
2022-10-13T18:20:56.395Z,13.40
2022-10-13T18:23:22.781Z,12.90
2022-10-13T18:25:50.127Z,15.73
2022-10-13T18:28:16.684Z,9.52
2022-10-13T18:30:43.189Z,13.05
2022-10-13T18:33:09.662Z,14.60
2022-10-13T18:35:36.022Z,15.98
2022-10-13T18:38:02.548Z,14.77
2022-10-13T18:40:29.029Z,11.65
2022-10-13T18:42:56.092Z,13.35
2022-10-13T18:45:22.739Z,15.90
2022-10-13T18:47:50.622Z,13.10
2022-10-13T18:50:17.062Z,8.98
2022-10-13T18:52:43.479Z,12.20
2022-10-13T18:55:12.313Z,13.55
2022-10-13T18:57:39.231Z,11.18
2022-10-13T19:00:06.993Z,10.38
2022-10-13T19:02:34.584Z,12.95
2022-10-13T19:05:01.022Z,16.58
2022-10-13T19:07:27.369Z,11.55
2022-10-13T19:09:54.366Z,9.55
2022-10-13T19:12:23.150Z,14.27
2022-10-13T19:14:49.546Z,9.93
2022-10-13T19:17:16.054Z,13.95
2022-10-13T19:19:42.953Z,10.23
2022-10-13T19:22:10.170Z,16.73
2022-10-13T19:24:36.701Z,11.13
2022-10-13T19:27:03.329Z,13.10
2022-10-13T19:29:30.568Z,10.88
2022-10-13T19:31:56.982Z,8.82
2022-10-13T19:34:23.557Z,12.43
2022-10-13T19:36:50.088Z,10.00
2022-10-13T19:39:20.190Z,14.38
2022-10-13T19:41:47.385Z,14.00
2022-10-13T19:44:14.611Z,12.40
2022-10-13T19:46:44.692Z,12.35
2022-10-13T19:49:12.214Z,20.17
2022-10-13T19:51:41.606Z,13.38
2022-10-13T19:54:08.690Z,13.40
2022-10-13T19:56:35.578Z,16.55
2022-10-13T19:59:04.227Z,11.88
2022-10-13T20:01:30.982Z,13.95
2022-10-13T20:03:57.359Z,11.15
2022-10-13T20:06:23.722Z,19.08
2022-10-13T20:08:50.205Z,12.27
2022-10-13T20:11:23.423Z,17.38
2022-10-13T20:13:50.387Z,12.82
2022-10-13T20:16:18.103Z,19.85
2022-10-13T20:18:44.467Z,12.30
2022-10-13T20:21:12.369Z,16.75
2022-10-13T20:23:40.649Z,17.08
2022-10-13T20:26:08.493Z,13.70
2022-10-13T20:28:39.232Z,9.80
2022-10-13T20:31:12.794Z,13.90
2022-10-13T20:33:39.556Z,16.50
2022-10-13T20:36:06.849Z,14.73
2022-10-13T20:38:35.827Z,16.25
2022-10-13T20:41:10.352Z,16.02
2022-10-13T20:43:37.169Z,11.02
2022-10-13T20:46:04.759Z,17.35
2022-10-13T20:48:51.101Z,21.25
2022-10-13T20:51:19.500Z,18.38
2022-10-13T20:53:46.527Z,14.77
2022-10-13T20:56:15.563Z,15.52
2022-10-13T20:58:42.325Z,13.07
2022-10-13T21:01:08.847Z,17.23
2022-10-13T21:03:35.240Z,17.77
2022-10-13T21:06:02.924Z,19.13
2022-10-13T21:08:29.330Z,18.63
2022-10-13T21:10:55.801Z,13.68
2022-10-13T21:13:22.183Z,15.63
2022-10-13T21:15:48.773Z,16.02
2022-10-13T21:18:16.171Z,14.15
2022-10-13T21:20:42.543Z,16.20
2022-10-13T21:23:10.434Z,20.20
2022-10-13T21:25:37.233Z,18.52
2022-10-13T21:28:03.713Z,18.13
2022-10-13T21:30:30.722Z,19.13
2022-10-13T21:32:57.257Z,17.20
2022-10-13T21:35:23.793Z,20.13
2022-10-13T21:37:50.193Z,15.55
2022-10-13T21:40:16.661Z,18.02
2022-10-13T21:42:45.890Z,16.90
2022-10-13T21:45:12.228Z,16.70
2022-10-13T21:47:38.576Z,16.63
2022-10-13T21:50:05.365Z,17.13
2022-10-13T21:52:34.390Z,24.08
2022-10-13T21:55:00.764Z,16.63
2022-10-13T21:57:27.131Z,20.67
2022-10-13T21:59:56.591Z,20.90
2022-10-13T22:02:22.920Z,23.65
2022-10-13T22:04:49.356Z,28.17
2022-10-13T22:07:15.716Z,21.60
2022-10-13T22:09:42.066Z,23.92
2022-10-13T22:12:09.228Z,34.15
2022-10-13T22:14:35.593Z,29.10
2022-10-13T22:17:04.552Z,26.58
2022-10-13T22:19:30.942Z,27.92
2022-10-13T22:21:57.278Z,26.55
2022-10-13T22:24:23.620Z,22.00
2022-10-13T22:26:50.428Z,26.67
2022-10-13T22:29:18.667Z,32.38
2022-10-13T22:31:45.081Z,28.42
2022-10-13T22:34:15.101Z,29.83
2022-10-13T22:36:44.760Z,22.83
2022-10-13T22:39:11.830Z,25.92
2022-10-13T22:41:38.228Z,29.73
2022-10-13T22:44:04.638Z,28.63
2022-10-13T22:46:32.588Z,34.85
2022-10-13T22:48:59.232Z,36.75
2022-10-13T22:51:30.462Z,31.92
2022-10-13T22:53:57.048Z,22.83
2022-10-13T22:56:24.775Z,32.53
2022-10-13T22:58:58.706Z,25.42
2022-10-13T23:01:27.658Z,23.75
2022-10-13T23:03:55.302Z,24.60
2022-10-13T23:06:23.025Z,27.65
2022-10-13T23:08:49.537Z,32.33
2022-10-13T23:11:16.611Z,31.33
2022-10-13T23:13:43.136Z,38.65
2022-10-13T23:16:11.181Z,26.98
2022-10-13T23:18:40.587Z,31.75
2022-10-13T23:21:07.937Z,29.00
2022-10-13T23:23:34.692Z,25.50
2022-10-13T23:26:02.303Z,26.17
2022-10-13T23:28:29.741Z,24.45
2022-10-13T23:30:58.450Z,28.17
2022-10-13T23:33:24.872Z,35.53
2022-10-13T23:35:58.350Z,39.88
2022-10-13T23:38:25.478Z,23.13
2022-10-13T23:40:52.218Z,32.13
2022-10-13T23:43:19.003Z,35.25
2022-10-13T23:45:45.581Z,29.42
2022-10-13T23:48:11.996Z,30.23
2022-10-13T23:50:38.432Z,26.60
2022-10-13T23:53:04.863Z,38.33
2022-10-13T23:55:31.247Z,30.00
2022-10-13T23:57:57.570Z,37.83
